sensor_id;sensor_type;location;lat;lon;timestamp;temperature;humidity
33699;DHT22;20032;52.436;13.312;2022-07-22T00:01:13;20.70;99.90
33699;DHT22;20032;52.436;13.312;2022-07-22T00:03:38;20.80;99.90
33699;DHT22;20032;52.436;13.312;2022-07-22T00:06:04;20.80;99.90
33699;DHT22;20032;52.436;13.312;2022-07-22T00:08:30;20.90;99.90
33699;DHT22;20032;52.436;13.312;2022-07-22T00:10:55;20.90;99.90
33699;DHT22;20032;52.436;13.312;2022-07-22T00:13:21;20.90;99.90
33699;DHT22;20032;52.436;13.312;2022-07-22T00:15:46;20.90;99.90
33699;DHT22;20032;52.436;13.312;2022-07-22T00:18:11;20.80;99.90
33699;DHT22;20032;52.436;13.312;2022-07-22T00:20:37;20.90;99.90
33699;DHT22;20032;52.436;13.312;2022-07-22T00:23:02;20.90;99.90
33699;DHT22;20032;52.436;13.312;2022-07-22T00:25:28;20.90;99.90
33699;DHT22;20032;52.436;13.312;2022-07-22T00:27:54;20.90;99.90
33699;DHT22;20032;52.436;13.312;2022-07-22T00:30:20;20.90;99.90
33699;DHT22;20032;52.436;13.312;2022-07-22T00:32:45;20.70;99.90
33699;DHT22;20032;52.436;13.312;2022-07-22T00:35:11;20.70;99.90
33699;DHT22;20032;52.436;13.312;2022-07-22T00:37:36;20.80;99.90
33699;DHT22;20032;52.436;13.312;2022-07-22T00:40:02;20.90;99.90
33699;DHT22;20032;52.436;13.312;2022-07-22T00:42:28;20.80;99.90
33699;DHT22;20032;52.436;13.312;2022-07-22T00:44:53;20.70;99.90
33699;DHT22;20032;52.436;13.312;2022-07-22T00:47:19;20.70;99.90
33699;DHT22;20032;52.436;13.312;2022-07-22T00:49:44;20.70;99.90
33699;DHT22;20032;52.436;13.312;2022-07-22T00:52:10;20.60;99.90
33699;DHT22;20032;52.436;13.312;2022-07-22T00:54:37;20.60;99.90
33699;DHT22;20032;52.436;13.312;2022-07-22T00:57:02;20.60;99.90
33699;DHT22;20032;52.436;13.312;2022-07-22T00:59:28;20.70;99.90
33699;DHT22;20032;52.436;13.312;2022-07-22T01:01:54;20.60;99.90
33699;DHT22;20032;52.436;13.312;2022-07-22T01:04:19;20.60;99.90
33699;DHT22;20032;52.436;13.312;2022-07-22T01:06:45;20.50;99.90
33699;DHT22;20032;52.436;13.312;2022-07-22T01:09:11;20.60;99.90
33699;DHT22;20032;52.436;13.312;2022-07-22T01:11:38;20.60;99.90
33699;DHT22;20032;52.436;13.312;2022-07-22T01:14:04;20.60;99.90
33699;DHT22;20032;52.436;13.312;2022-07-22T01:16:29;20.60;99.90
33699;DHT22;20032;52.436;13.312;2022-07-22T01:18:55;20.70;99.90
33699;DHT22;20032;52.436;13.312;2022-07-22T01:21:20;20.70;99.90
33699;DHT22;20032;52.436;13.312;2022-07-22T01:23:46;20.70;99.90
33699;DHT22;20032;52.436;13.312;2022-07-22T01:26:12;20.60;99.90
33699;DHT22;20032;52.436;13.312;2022-07-22T01:28:38;20.60;99.90
33699;DHT22;20032;52.436;13.312;2022-07-22T01:31:03;20.60;99.90
33699;DHT22;20032;52.436;13.312;2022-07-22T01:33:29;20.50;99.90
33699;DHT22;20032;52.436;13.312;2022-07-22T01:35:55;20.40;99.90
33699;DHT22;20032;52.436;13.312;2022-07-22T01:38:20;20.40;99.90
33699;DHT22;20032;52.436;13.312;2022-07-22T01:40:46;20.40;99.90
33699;DHT22;20032;52.436;13.312;2022-07-22T01:43:12;20.30;99.90
33699;DHT22;20032;52.436;13.312;2022-07-22T01:45:41;20.30;99.90
33699;DHT22;20032;52.436;13.312;2022-07-22T01:48:06;20.30;99.90
33699;DHT22;20032;52.436;13.312;2022-07-22T01:50:32;20.30;99.90
33699;DHT22;20032;52.436;13.312;2022-07-22T01:52:57;20.30;99.90
33699;DHT22;20032;52.436;13.312;2022-07-22T01:55:23;20.20;99.90
33699;DHT22;20032;52.436;13.312;2022-07-22T01:57:48;20.30;99.90
33699;DHT22;20032;52.436;13.312;2022-07-22T02:00:14;20.40;99.90
33699;DHT22;20032;52.436;13.312;2022-07-22T02:02:40;20.30;99.90
33699;DHT22;20032;52.436;13.312;2022-07-22T02:05:06;20.30;99.90
33699;DHT22;20032;52.436;13.312;2022-07-22T02:07:33;20.20;99.90
33699;DHT22;20032;52.436;13.312;2022-07-22T02:09:58;20.20;99.90
33699;DHT22;20032;52.436;13.312;2022-07-22T02:12:24;20.20;99.90
33699;DHT22;20032;52.436;13.312;2022-07-22T02:14:49;20.10;99.90
33699;DHT22;20032;52.436;13.312;2022-07-22T02:17:15;20.10;99.90
33699;DHT22;20032;52.436;13.312;2022-07-22T02:19:41;20.10;99.90
33699;DHT22;20032;52.436;13.312;2022-07-22T02:22:07;20.00;99.90
33699;DHT22;20032;52.436;13.312;2022-07-22T02:24:32;20.00;99.90
33699;DHT22;20032;52.436;13.312;2022-07-22T02:26:58;19.80;99.90
33699;DHT22;20032;52.436;13.312;2022-07-22T02:29:24;19.90;99.90
33699;DHT22;20032;52.436;13.312;2022-07-22T02:31:49;19.90;99.90
33699;DHT22;20032;52.436;13.312;2022-07-22T02:34:15;19.80;99.90
33699;DHT22;20032;52.436;13.312;2022-07-22T02:36:40;19.80;99.90
33699;DHT22;20032;52.436;13.312;2022-07-22T02:39:06;19.90;99.90
33699;DHT22;20032;52.436;13.312;2022-07-22T02:43:52;19.90;99.90
33699;DHT22;20032;52.436;13.312;2022-07-22T02:44:57;19.90;99.90
33699;DHT22;20032;52.436;13.312;2022-07-22T02:47:23;19.90;99.90
33699;DHT22;20032;52.436;13.312;2022-07-22T02:49:48;19.80;99.90
33699;DHT22;20032;52.436;13.312;2022-07-22T02:52:13;19.90;99.90
33699;DHT22;20032;52.436;13.312;2022-07-22T02:54:39;19.80;99.90
33699;DHT22;20032;52.436;13.312;2022-07-22T02:57:04;19.80;99.90
33699;DHT22;20032;52.436;13.312;2022-07-22T02:59:30;19.90;99.90
33699;DHT22;20032;52.436;13.312;2022-07-22T03:01:55;19.90;99.90
33699;DHT22;20032;52.436;13.312;2022-07-22T03:04:21;19.80;99.90
33699;DHT22;20032;52.436;13.312;2022-07-22T03:06:47;19.80;99.90
33699;DHT22;20032;52.436;13.312;2022-07-22T03:09:12;19.70;99.90
33699;DHT22;20032;52.436;13.312;2022-07-22T03:11:38;19.70;99.90
33699;DHT22;20032;52.436;13.312;2022-07-22T03:14:03;19.80;99.90
33699;DHT22;20032;52.436;13.312;2022-07-22T03:16:28;19.70;99.90
33699;DHT22;20032;52.436;13.312;2022-07-22T03:18:54;19.80;99.90
33699;DHT22;20032;52.436;13.312;2022-07-22T03:21:20;19.80;99.90
33699;DHT22;20032;52.436;13.312;2022-07-22T03:23:45;19.70;99.90
33699;DHT22;20032;52.436;13.312;2022-07-22T03:26:10;19.60;99.90
33699;DHT22;20032;52.436;13.312;2022-07-22T03:28:36;19.60;99.90
33699;DHT22;20032;52.436;13.312;2022-07-22T03:31:01;19.60;99.90
33699;DHT22;20032;52.436;13.312;2022-07-22T03:33:27;19.70;99.90
33699;DHT22;20032;52.436;13.312;2022-07-22T03:35:53;19.70;99.90
33699;DHT22;20032;52.436;13.312;2022-07-22T03:38:18;19.70;99.90
33699;DHT22;20032;52.436;13.312;2022-07-22T03:40:43;19.80;99.90
33699;DHT22;20032;52.436;13.312;2022-07-22T03:43:09;19.80;99.90
33699;DHT22;20032;52.436;13.312;2022-07-22T03:45:34;19.80;99.90
33699;DHT22;20032;52.436;13.312;2022-07-22T03:48:00;19.70;99.90
33699;DHT22;20032;52.436;13.312;2022-07-22T03:50:25;19.70;99.90
33699;DHT22;20032;52.436;13.312;2022-07-22T03:52:51;19.70;99.90
33699;DHT22;20032;52.436;13.312;2022-07-22T03:55:17;19.70;99.90
33699;DHT22;20032;52.436;13.312;2022-07-22T03:57:42;19.70;99.90
33699;DHT22;20032;52.436;13.312;2022-07-22T04:00:08;19.70;99.90
33699;DHT22;20032;52.436;13.312;2022-07-22T04:02:34;19.70;99.90
33699;DHT22;20032;52.436;13.312;2022-07-22T04:04:59;19.70;99.90
33699;DHT22;20032;52.436;13.312;2022-07-22T04:07:24;19.80;99.90
33699;DHT22;20032;52.436;13.312;2022-07-22T04:09:50;19.80;99.90
33699;DHT22;20032;52.436;13.312;2022-07-22T04:12:15;19.80;99.90
33699;DHT22;20032;52.436;13.312;2022-07-22T04:14:41;19.70;99.90
33699;DHT22;20032;52.436;13.312;2022-07-22T04:17:06;19.70;99.90
33699;DHT22;20032;52.436;13.312;2022-07-22T04:19:32;19.70;99.90
33699;DHT22;20032;52.436;13.312;2022-07-22T04:21:57;19.80;99.90
33699;DHT22;20032;52.436;13.312;2022-07-22T04:24:23;19.90;99.90
33699;DHT22;20032;52.436;13.312;2022-07-22T04:26:48;19.90;99.90
33699;DHT22;20032;52.436;13.312;2022-07-22T04:29:14;20.00;99.90
33699;DHT22;20032;52.436;13.312;2022-07-22T04:31:39;19.90;99.90
33699;DHT22;20032;52.436;13.312;2022-07-22T04:34:05;19.90;99.90
33699;DHT22;20032;52.436;13.312;2022-07-22T04:36:30;20.00;99.90
33699;DHT22;20032;52.436;13.312;2022-07-22T04:38:56;19.80;99.90
33699;DHT22;20032;52.436;13.312;2022-07-22T04:41:22;19.80;99.90
33699;DHT22;20032;52.436;13.312;2022-07-22T04:43:47;19.80;99.90
33699;DHT22;20032;52.436;13.312;2022-07-22T04:46:13;19.90;99.90
33699;DHT22;20032;52.436;13.312;2022-07-22T04:48:39;19.90;99.90
33699;DHT22;20032;52.436;13.312;2022-07-22T04:51:04;20.00;99.90
33699;DHT22;20032;52.436;13.312;2022-07-22T04:53:30;19.80;99.90
33699;DHT22;20032;52.436;13.312;2022-07-22T04:55:55;19.70;99.90
33699;DHT22;20032;52.436;13.312;2022-07-22T04:58:21;19.80;99.90
33699;DHT22;20032;52.436;13.312;2022-07-22T05:00:47;19.80;99.90
33699;DHT22;20032;52.436;13.312;2022-07-22T05:03:13;19.90;99.90
33699;DHT22;20032;52.436;13.312;2022-07-22T05:05:38;19.90;99.90
33699;DHT22;20032;52.436;13.312;2022-07-22T05:08:04;20.00;99.90
33699;DHT22;20032;52.436;13.312;2022-07-22T05:10:30;20.00;99.90
33699;DHT22;20032;52.436;13.312;2022-07-22T05:12:55;20.10;99.90
33699;DHT22;20032;52.436;13.312;2022-07-22T05:15:21;20.00;99.90
33699;DHT22;20032;52.436;13.312;2022-07-22T05:17:46;20.00;99.90
33699;DHT22;20032;52.436;13.312;2022-07-22T05:20:12;20.10;99.90
33699;DHT22;20032;52.436;13.312;2022-07-22T05:22:38;20.10;99.90
33699;DHT22;20032;52.436;13.312;2022-07-22T05:25:04;20.10;99.90
33699;DHT22;20032;52.436;13.312;2022-07-22T05:27:30;20.10;99.90
33699;DHT22;20032;52.436;13.312;2022-07-22T05:29:56;20.10;99.90
33699;DHT22;20032;52.436;13.312;2022-07-22T05:32:22;20.20;99.90
33699;DHT22;20032;52.436;13.312;2022-07-22T05:34:47;20.20;99.90
33699;DHT22;20032;52.436;13.312;2022-07-22T05:37:13;20.30;99.90
33699;DHT22;20032;52.436;13.312;2022-07-22T05:39:38;20.30;99.90
33699;DHT22;20032;52.436;13.312;2022-07-22T05:42:04;20.30;99.90
33699;DHT22;20032;52.436;13.312;2022-07-22T05:44:29;20.20;99.90
33699;DHT22;20032;52.436;13.312;2022-07-22T05:46:55;20.20;99.90
33699;DHT22;20032;52.436;13.312;2022-07-22T05:49:20;20.30;99.90
33699;DHT22;20032;52.436;13.312;2022-07-22T05:51:47;20.40;99.90
33699;DHT22;20032;52.436;13.312;2022-07-22T05:54:12;20.40;99.90
33699;DHT22;20032;52.436;13.312;2022-07-22T05:56:38;20.40;99.90
33699;DHT22;20032;52.436;13.312;2022-07-22T05:59:03;20.40;99.90
33699;DHT22;20032;52.436;13.312;2022-07-22T06:01:28;20.40;99.90
33699;DHT22;20032;52.436;13.312;2022-07-22T06:03:54;20.40;99.90
33699;DHT22;20032;52.436;13.312;2022-07-22T06:06:19;20.40;99.90
33699;DHT22;20032;52.436;13.312;2022-07-22T06:08:45;20.30;99.90
33699;DHT22;20032;52.436;13.312;2022-07-22T06:11:10;20.30;99.90
33699;DHT22;20032;52.436;13.312;2022-07-22T06:13:37;20.40;99.90
33699;DHT22;20032;52.436;13.312;2022-07-22T06:16:02;20.40;99.90
33699;DHT22;20032;52.436;13.312;2022-07-22T06:18:28;20.50;99.90
33699;DHT22;20032;52.436;13.312;2022-07-22T06:20:53;20.50;99.90
33699;DHT22;20032;52.436;13.312;2022-07-22T06:23:19;20.60;99.90
33699;DHT22;20032;52.436;13.312;2022-07-22T06:25:44;20.50;99.90
33699;DHT22;20032;52.436;13.312;2022-07-22T06:28:10;20.50;99.90
33699;DHT22;20032;52.436;13.312;2022-07-22T06:30:36;20.50;99.90
33699;DHT22;20032;52.436;13.312;2022-07-22T06:33:02;20.60;99.90
33699;DHT22;20032;52.436;13.312;2022-07-22T06:35:27;20.70;99.90
33699;DHT22;20032;52.436;13.312;2022-07-22T06:37:53;20.60;99.90
33699;DHT22;20032;52.436;13.312;2022-07-22T06:40:19;20.60;99.90
33699;DHT22;20032;52.436;13.312;2022-07-22T06:42:44;20.60;99.90
33699;DHT22;20032;52.436;13.312;2022-07-22T06:45:10;20.60;99.90
33699;DHT22;20032;52.436;13.312;2022-07-22T06:47:36;20.70;99.90
33699;DHT22;20032;52.436;13.312;2022-07-22T06:50:03;20.80;99.90
33699;DHT22;20032;52.436;13.312;2022-07-22T06:52:28;20.90;99.90
33699;DHT22;20032;52.436;13.312;2022-07-22T06:54:54;21.10;99.90
33699;DHT22;20032;52.436;13.312;2022-07-22T06:57:19;21.20;99.90
33699;DHT22;20032;52.436;13.312;2022-07-22T06:59:45;21.20;99.90
33699;DHT22;20032;52.436;13.312;2022-07-22T07:02:10;21.20;99.90
33699;DHT22;20032;52.436;13.312;2022-07-22T07:04:36;21.20;99.90
33699;DHT22;20032;52.436;13.312;2022-07-22T07:07:01;21.10;99.90
33699;DHT22;20032;52.436;13.312;2022-07-22T07:09:27;21.20;99.90
33699;DHT22;20032;52.436;13.312;2022-07-22T07:11:52;21.30;99.90
33699;DHT22;20032;52.436;13.312;2022-07-22T07:14:18;21.40;99.90
33699;DHT22;20032;52.436;13.312;2022-07-22T07:16:43;21.50;99.90
33699;DHT22;20032;52.436;13.312;2022-07-22T07:19:09;21.50;99.90
33699;DHT22;20032;52.436;13.312;2022-07-22T07:21:34;21.50;99.90
33699;DHT22;20032;52.436;13.312;2022-07-22T07:24:00;21.50;99.90
33699;DHT22;20032;52.436;13.312;2022-07-22T07:26:27;21.60;99.90
33699;DHT22;20032;52.436;13.312;2022-07-22T07:28:52;21.80;99.90
33699;DHT22;20032;52.436;13.312;2022-07-22T07:31:18;22.00;99.90
33699;DHT22;20032;52.436;13.312;2022-07-22T07:33:44;21.90;99.90
33699;DHT22;20032;52.436;13.312;2022-07-22T07:36:09;21.90;99.90
33699;DHT22;20032;52.436;13.312;2022-07-22T07:38:35;21.90;99.90
33699;DHT22;20032;52.436;13.312;2022-07-22T07:41:01;22.00;99.90
33699;DHT22;20032;52.436;13.312;2022-07-22T07:43:26;22.00;99.90
33699;DHT22;20032;52.436;13.312;2022-07-22T07:45:52;22.20;99.90
33699;DHT22;20032;52.436;13.312;2022-07-22T07:48:17;22.20;99.90
33699;DHT22;20032;52.436;13.312;2022-07-22T07:50:43;22.20;99.90
33699;DHT22;20032;52.436;13.312;2022-07-22T07:53:08;22.10;99.90
33699;DHT22;20032;52.436;13.312;2022-07-22T07:55:38;21.90;99.90
33699;DHT22;20032;52.436;13.312;2022-07-22T07:58:05;22.00;99.90
33699;DHT22;20032;52.436;13.312;2022-07-22T08:00:30;22.30;99.90
33699;DHT22;20032;52.436;13.312;2022-07-22T08:02:58;22.40;99.90
33699;DHT22;20032;52.436;13.312;2022-07-22T08:05:24;22.70;99.90
33699;DHT22;20032;52.436;13.312;2022-07-22T08:07:50;22.70;99.90
33699;DHT22;20032;52.436;13.312;2022-07-22T08:10:17;22.60;99.90
33699;DHT22;20032;52.436;13.312;2022-07-22T08:12:42;22.40;99.90
33699;DHT22;20032;52.436;13.312;2022-07-22T08:15:08;22.40;99.90
33699;DHT22;20032;52.436;13.312;2022-07-22T08:17:34;22.30;99.90
33699;DHT22;20032;52.436;13.312;2022-07-22T08:19:59;22.40;99.90
33699;DHT22;20032;52.436;13.312;2022-07-22T08:22:25;22.60;99.90
33699;DHT22;20032;52.436;13.312;2022-07-22T08:24:50;22.60;99.90
33699;DHT22;20032;52.436;13.312;2022-07-22T08:27:16;22.60;99.90
33699;DHT22;20032;52.436;13.312;2022-07-22T08:29:41;22.70;99.90
33699;DHT22;20032;52.436;13.312;2022-07-22T08:32:07;22.90;99.90
33699;DHT22;20032;52.436;13.312;2022-07-22T08:34:32;23.00;99.90
33699;DHT22;20032;52.436;13.312;2022-07-22T08:36:58;23.00;99.90
33699;DHT22;20032;52.436;13.312;2022-07-22T08:39:23;22.80;99.90
33699;DHT22;20032;52.436;13.312;2022-07-22T08:41:49;22.90;99.90
33699;DHT22;20032;52.436;13.312;2022-07-22T08:44:15;22.90;99.90
33699;DHT22;20032;52.436;13.312;2022-07-22T08:46:43;22.80;99.90
33699;DHT22;20032;52.436;13.312;2022-07-22T08:49:11;22.80;99.90
33699;DHT22;20032;52.436;13.312;2022-07-22T08:51:38;22.70;99.90
33699;DHT22;20032;52.436;13.312;2022-07-22T08:54:03;22.70;99.90
33699;DHT22;20032;52.436;13.312;2022-07-22T08:56:29;22.50;99.90
33699;DHT22;20032;52.436;13.312;2022-07-22T08:58:54;22.50;99.90
33699;DHT22;20032;52.436;13.312;2022-07-22T09:01:19;22.50;99.90
33699;DHT22;20032;52.436;13.312;2022-07-22T09:03:53;22.50;99.90
33699;DHT22;20032;52.436;13.312;2022-07-22T09:06:22;22.50;99.90
33699;DHT22;20032;52.436;13.312;2022-07-22T09:08:53;22.50;99.90
33699;DHT22;20032;52.436;13.312;2022-07-22T09:11:20;22.40;99.90
33699;DHT22;20032;52.436;13.312;2022-07-22T09:13:47;22.40;99.90
33699;DHT22;20032;52.436;13.312;2022-07-22T09:16:13;22.50;99.90
33699;DHT22;20032;52.436;13.312;2022-07-22T09:18:54;22.60;99.90
33699;DHT22;20032;52.436;13.312;2022-07-22T09:21:21;22.60;99.90
33699;DHT22;20032;52.436;13.312;2022-07-22T09:23:46;22.60;99.90
33699;DHT22;20032;52.436;13.312;2022-07-22T09:26:30;22.60;99.90
33699;DHT22;20032;52.436;13.312;2022-07-22T09:28:56;22.50;99.90
33699;DHT22;20032;52.436;13.312;2022-07-22T09:31:25;22.30;99.90
33699;DHT22;20032;52.436;13.312;2022-07-22T09:33:51;22.20;99.90
33699;DHT22;20032;52.436;13.312;2022-07-22T09:36:19;22.20;99.90
33699;DHT22;20032;52.436;13.312;2022-07-22T09:38:44;22.10;99.90
33699;DHT22;20032;52.436;13.312;2022-07-22T09:41:10;22.10;99.90
33699;DHT22;20032;52.436;13.312;2022-07-22T09:43:36;22.00;99.90
33699;DHT22;20032;52.436;13.312;2022-07-22T09:46:02;22.10;99.90
33699;DHT22;20032;52.436;13.312;2022-07-22T09:48:29;22.20;99.90
33699;DHT22;20032;52.436;13.312;2022-07-22T09:50:55;22.20;99.90
33699;DHT22;20032;52.436;13.312;2022-07-22T09:53:23;22.30;99.90
33699;DHT22;20032;52.436;13.312;2022-07-22T09:55:50;22.30;99.90
33699;DHT22;20032;52.436;13.312;2022-07-22T09:58:16;22.20;99.90
33699;DHT22;20032;52.436;13.312;2022-07-22T10:00:42;22.30;99.90
33699;DHT22;20032;52.436;13.312;2022-07-22T10:03:11;22.40;99.90
33699;DHT22;20032;52.436;13.312;2022-07-22T10:05:38;22.50;99.90
33699;DHT22;20032;52.436;13.312;2022-07-22T10:08:05;22.60;99.90
33699;DHT22;20032;52.436;13.312;2022-07-22T10:10:33;22.50;99.90
33699;DHT22;20032;52.436;13.312;2022-07-22T10:13:00;22.60;99.90
33699;DHT22;20032;52.436;13.312;2022-07-22T10:15:27;22.70;99.90
33699;DHT22;20032;52.436;13.312;2022-07-22T10:17:55;23.10;99.90
33699;DHT22;20032;52.436;13.312;2022-07-22T10:20:24;23.60;99.90
33699;DHT22;20032;52.436;13.312;2022-07-22T10:22:54;23.80;99.90
33699;DHT22;20032;52.436;13.312;2022-07-22T10:25:21;23.90;99.90
33699;DHT22;20032;52.436;13.312;2022-07-22T10:27:50;23.90;99.90
33699;DHT22;20032;52.436;13.312;2022-07-22T10:30:19;23.90;99.90
33699;DHT22;20032;52.436;13.312;2022-07-22T10:32:45;24.00;99.90
33699;DHT22;20032;52.436;13.312;2022-07-22T10:37:39;24.40;99.90
33699;DHT22;20032;52.436;13.312;2022-07-22T10:45:25;24.50;99.90
33699;DHT22;20032;52.436;13.312;2022-07-22T10:47:56;24.30;99.90
33699;DHT22;20032;52.436;13.312;2022-07-22T10:50:40;24.30;99.90
33699;DHT22;20032;52.436;13.312;2022-07-22T10:53:09;24.70;99.90
33699;DHT22;20032;52.436;13.312;2022-07-22T10:55:36;25.10;99.90
33699;DHT22;20032;52.436;13.312;2022-07-22T11:01:09;25.00;99.90
33699;DHT22;20032;52.436;13.312;2022-07-22T11:03:37;25.00;99.90
33699;DHT22;20032;52.436;13.312;2022-07-22T11:06:22;24.90;99.90
33699;DHT22;20032;52.436;13.312;2022-07-22T11:08:51;24.80;99.90
33699;DHT22;20032;52.436;13.312;2022-07-22T11:11:18;24.50;99.90
33699;DHT22;20032;52.436;13.312;2022-07-22T11:13:44;24.60;99.90
33699;DHT22;20032;52.436;13.312;2022-07-22T11:16:22;24.40;99.90
33699;DHT22;20032;52.436;13.312;2022-07-22T11:21:19;24.50;99.90
33699;DHT22;20032;52.436;13.312;2022-07-22T11:23:48;24.50;99.90
33699;DHT22;20032;52.436;13.312;2022-07-22T11:26:16;24.40;99.90
33699;DHT22;20032;52.436;13.312;2022-07-22T11:28:43;24.50;99.90
33699;DHT22;20032;52.436;13.312;2022-07-22T11:31:10;24.80;99.90
33699;DHT22;20032;52.436;13.312;2022-07-22T11:33:35;24.90;99.90
33699;DHT22;20032;52.436;13.312;2022-07-22T11:36:06;24.90;99.90
33699;DHT22;20032;52.436;13.312;2022-07-22T11:38:44;24.70;99.90
33699;DHT22;20032;52.436;13.312;2022-07-22T11:41:10;24.70;99.90
33699;DHT22;20032;52.436;13.312;2022-07-22T11:43:41;25.00;99.90
33699;DHT22;20032;52.436;13.312;2022-07-22T11:46:07;25.20;99.90
33699;DHT22;20032;52.436;13.312;2022-07-22T11:48:32;25.30;99.90
33699;DHT22;20032;52.436;13.312;2022-07-22T11:51:01;25.40;99.90
33699;DHT22;20032;52.436;13.312;2022-07-22T11:53:26;25.70;99.90
33699;DHT22;20032;52.436;13.312;2022-07-22T11:55:56;26.20;99.90
33699;DHT22;20032;52.436;13.312;2022-07-22T11:58:40;26.50;99.90
33699;DHT22;20032;52.436;13.312;2022-07-22T12:01:08;26.40;99.90
33699;DHT22;20032;52.436;13.312;2022-07-22T12:03:37;25.90;99.90
33699;DHT22;20032;52.436;13.312;2022-07-22T12:06:05;25.70;99.90
33699;DHT22;20032;52.436;13.312;2022-07-22T12:08:32;25.60;99.90
33699;DHT22;20032;52.436;13.312;2022-07-22T12:10:59;25.50;99.90
33699;DHT22;20032;52.436;13.312;2022-07-22T12:13:30;25.30;99.90
33699;DHT22;20032;52.436;13.312;2022-07-22T12:15:55;25.10;99.90
33699;DHT22;20032;52.436;13.312;2022-07-22T12:18:23;25.00;99.90
33699;DHT22;20032;52.436;13.312;2022-07-22T12:20:50;24.90;99.90
33699;DHT22;20032;52.436;13.312;2022-07-22T12:23:16;24.90;99.90
33699;DHT22;20032;52.436;13.312;2022-07-22T12:28:21;25.00;99.90
33699;DHT22;20032;52.436;13.312;2022-07-22T12:30:49;25.00;99.90
33699;DHT22;20032;52.436;13.312;2022-07-22T12:33:17;25.10;99.90
33699;DHT22;20032;52.436;13.312;2022-07-22T12:35:43;25.30;99.90
33699;DHT22;20032;52.436;13.312;2022-07-22T12:38:09;25.20;99.90
33699;DHT22;20032;52.436;13.312;2022-07-22T12:40:37;25.20;99.90
33699;DHT22;20032;52.436;13.312;2022-07-22T12:43:05;25.40;99.90
33699;DHT22;20032;52.436;13.312;2022-07-22T12:45:33;25.50;99.90
33699;DHT22;20032;52.436;13.312;2022-07-22T12:53:21;26.00;99.90
33699;DHT22;20032;52.436;13.312;2022-07-22T12:55:53;25.90;99.90
33699;DHT22;20032;52.436;13.312;2022-07-22T12:58:27;26.20;99.90
33699;DHT22;20032;52.436;13.312;2022-07-22T13:00:57;26.90;99.90
33699;DHT22;20032;52.436;13.312;2022-07-22T13:03:23;26.80;99.90
33699;DHT22;20032;52.436;13.312;2022-07-22T13:05:53;27.10;99.90
33699;DHT22;20032;52.436;13.312;2022-07-22T13:08:21;26.70;99.90
33699;DHT22;20032;52.436;13.312;2022-07-22T13:10:46;26.10;99.90
33699;DHT22;20032;52.436;13.312;2022-07-22T13:13:12;25.80;99.90
33699;DHT22;20032;52.436;13.312;2022-07-22T13:15:38;25.60;99.90
33699;DHT22;20032;52.436;13.312;2022-07-22T13:18:04;25.60;99.90
33699;DHT22;20032;52.436;13.312;2022-07-22T13:20:30;26.20;99.90
33699;DHT22;20032;52.436;13.312;2022-07-22T13:22:55;27.60;99.90
33699;DHT22;20032;52.436;13.312;2022-07-22T13:25:21;28.70;99.90
33699;DHT22;20032;52.436;13.312;2022-07-22T13:27:46;29.40;98.90
33699;DHT22;20032;52.436;13.312;2022-07-22T13:30:12;29.90;98.20
33699;DHT22;20032;52.436;13.312;2022-07-22T13:32:38;29.40;98.20
33699;DHT22;20032;52.436;13.312;2022-07-22T13:35:04;29.00;98.60
33699;DHT22;20032;52.436;13.312;2022-07-22T13:37:29;29.10;98.80
33699;DHT22;20032;52.436;13.312;2022-07-22T13:39:55;28.70;98.40
33699;DHT22;20032;52.436;13.312;2022-07-22T13:42:20;28.00;99.50
33699;DHT22;20032;52.436;13.312;2022-07-22T13:44:46;28.50;99.00
33699;DHT22;20032;52.436;13.312;2022-07-22T13:47:13;29.30;98.10
33699;DHT22;20032;52.436;13.312;2022-07-22T13:49:38;30.20;96.20
33699;DHT22;20032;52.436;13.312;2022-07-22T13:52:04;29.90;96.00
33699;DHT22;20032;52.436;13.312;2022-07-22T13:54:31;30.40;95.60
33699;DHT22;20032;52.436;13.312;2022-07-22T13:56:59;30.70;94.80
33699;DHT22;20032;52.436;13.312;2022-07-22T13:59:25;31.30;93.10
33699;DHT22;20032;52.436;13.312;2022-07-22T14:01:50;31.50;92.80
33699;DHT22;20032;52.436;13.312;2022-07-22T14:04:16;31.90;91.80
33699;DHT22;20032;52.436;13.312;2022-07-22T14:06:41;31.30;91.60
33699;DHT22;20032;52.436;13.312;2022-07-22T14:09:07;31.00;92.10
33699;DHT22;20032;52.436;13.312;2022-07-22T14:11:32;31.30;91.70
33699;DHT22;20032;52.436;13.312;2022-07-22T14:13:58;31.20;91.70
33699;DHT22;20032;52.436;13.312;2022-07-22T14:16:23;31.20;92.10
33699;DHT22;20032;52.436;13.312;2022-07-22T14:19:11;31.70;91.20
33699;DHT22;20032;52.436;13.312;2022-07-22T14:21:38;31.80;90.50
33699;DHT22;20032;52.436;13.312;2022-07-22T14:24:05;30.90;91.60
33699;DHT22;20032;52.436;13.312;2022-07-22T14:26:31;30.20;92.20
33699;DHT22;20032;52.436;13.312;2022-07-22T14:28:56;29.80;93.00
33699;DHT22;20032;52.436;13.312;2022-07-22T14:31:22;30.30;92.80
33699;DHT22;20032;52.436;13.312;2022-07-22T14:33:48;31.30;91.80
33699;DHT22;20032;52.436;13.312;2022-07-22T14:36:13;31.80;90.70
33699;DHT22;20032;52.436;13.312;2022-07-22T14:38:39;32.70;88.50
33699;DHT22;20032;52.436;13.312;2022-07-22T14:41:05;33.10;87.40
33699;DHT22;20032;52.436;13.312;2022-07-22T14:43:32;33.20;85.70
33699;DHT22;20032;52.436;13.312;2022-07-22T14:45:58;33.20;85.20
33699;DHT22;20032;52.436;13.312;2022-07-22T14:48:23;33.40;84.60
33699;DHT22;20032;52.436;13.312;2022-07-22T14:50:49;33.90;82.80
33699;DHT22;20032;52.436;13.312;2022-07-22T14:53:14;33.70;83.40
33699;DHT22;20032;52.436;13.312;2022-07-22T14:55:42;33.70;82.60
33699;DHT22;20032;52.436;13.312;2022-07-22T14:58:07;33.50;82.80
33699;DHT22;20032;52.436;13.312;2022-07-22T15:00:33;33.80;81.60
33699;DHT22;20032;52.436;13.312;2022-07-22T15:02:58;34.00;80.30
33699;DHT22;20032;52.436;13.312;2022-07-22T15:05:24;33.40;82.10
33699;DHT22;20032;52.436;13.312;2022-07-22T15:07:50;33.70;82.20
33699;DHT22;20032;52.436;13.312;2022-07-22T15:10:15;33.60;81.60
33699;DHT22;20032;52.436;13.312;2022-07-22T15:12:41;33.00;82.30
33699;DHT22;20032;52.436;13.312;2022-07-22T15:15:07;32.70;82.40
33699;DHT22;20032;52.436;13.312;2022-07-22T15:17:35;32.70;82.60
33699;DHT22;20032;52.436;13.312;2022-07-22T15:20:01;32.40;84.00
33699;DHT22;20032;52.436;13.312;2022-07-22T15:22:27;32.00;83.90
33699;DHT22;20032;52.436;13.312;2022-07-22T15:24:53;31.80;84.50
33699;DHT22;20032;52.436;13.312;2022-07-22T15:27:19;32.00;84.30
33699;DHT22;20032;52.436;13.312;2022-07-22T15:29:44;33.10;82.50
33699;DHT22;20032;52.436;13.312;2022-07-22T15:32:10;33.70;80.30